Time;durP1;ratioP1;P1;durP2;ratioP2;P2;SDS_P1;SDS_P2;PMS_P1;PMS_P2;Temp;Humidity;BMP_temperature;BMP_pressure;BME280_temperature;BME280_humidity;BME280_pressure;Samples;Min_cycle;Max_cycle;Signal;HPM_P1;HPM_P2
2021/08/21 00:00:40;;;;;;;14.30;7.57;;;;;;;;;;4996697;28;20725;-81
2021/08/21 00:03:08;;;;;;;13.10;7.13;;;;;;;;;;5023004;28;20049;-83
2021/08/21 00:05:36;;;;;;;13.88;7.60;;;;;;;;;;4978285;28;20094;-78
2021/08/21 00:08:04;;;;;;;12.55;7.43;;;;;;;;;;4992200;28;20053;-79
2021/08/21 00:10:33;;;;;;;12.35;7.75;;;;;;;;;;4997198;28;20045;-79
2021/08/21 00:13:01;;;;;;;19.35;8.20;;;;;;;;;;5008709;28;20046;-82
2021/08/21 00:15:32;;;;;;;12.18;7.88;;;;;;;;;;5000891;28;20042;-81
2021/08/21 00:18:02;;;;;;;13.13;8.23;;;;;;;;;;5037124;28;20041;-84
2021/08/21 00:20:29;;;;;;;15.63;7.38;;;;;;;;;;5009053;28;20034;-85
2021/08/21 00:22:56;;;;;;;10.20;7.03;;;;;;;;;;4966135;28;20111;-82
2021/08/21 00:25:23;;;;;;;13.02;7.07;;;;;;;;;;4959862;28;20050;-87
2021/08/21 00:27:50;;;;;;;12.57;6.38;;;;;;;;;;4975570;28;20034;-81
2021/08/21 00:30:20;;;;;;;14.70;8.85;;;;;;;;;;4992237;28;20049;-78
2021/08/21 00:32:48;;;;;;;12.20;8.05;;;;;;;;;;4964735;28;20069;-81
2021/08/21 00:35:15;;;;;;;16.00;8.93;;;;;;;;;;4981947;28;20512;-84
2021/08/21 00:37:42;;;;;;;12.73;7.82;;;;;;;;;;4982367;28;20390;-83
2021/08/21 00:40:10;;;;;;;11.80;7.72;;;;;;;;;;4987206;28;20049;-79
2021/08/21 00:42:41;;;;;;;11.93;6.85;;;;;;;;;;5020146;28;20045;-82
2021/08/21 00:45:09;;;;;;;11.57;7.00;;;;;;;;;;4989093;28;20038;-75
2021/08/21 00:47:38;;;;;;;9.63;6.60;;;;;;;;;;5027017;28;20747;-78
2021/08/21 00:50:06;;;;;;;10.73;6.68;;;;;;;;;;5022887;28;20084;-76
2021/08/21 00:52:39;;;;;;;11.25;8.13;;;;;;;;;;5011476;28;20125;-84
2021/08/21 00:55:10;;;;;;;13.43;7.95;;;;;;;;;;4976877;28;20046;-80
2021/08/21 00:57:37;;;;;;;13.18;7.22;;;;;;;;;;4995162;28;20519;-85
2021/08/21 01:00:07;;;;;;;14.43;8.07;;;;;;;;;;5018947;28;20042;-84
2021/08/21 01:02:36;;;;;;;11.88;6.90;;;;;;;;;;5043147;28;20089;-81
2021/08/21 01:05:06;;;;;;;11.65;7.53;;;;;;;;;;5035838;28;20037;-79
2021/08/21 01:07:35;;;;;;;13.05;6.45;;;;;;;;;;5002113;28;20045;-83
2021/08/21 01:10:10;;;;;;;12.63;7.72;;;;;;;;;;5030207;28;20060;-80
2021/08/21 01:12:38;;;;;;;20.38;13.93;;;;;;;;;;5028972;28;20458;-79
2021/08/21 01:15:10;;;;;;;14.80;9.68;;;;;;;;;;5030452;28;20040;-80
2021/08/21 01:17:37;;;;;;;16.02;9.32;;;;;;;;;;4995466;28;20096;-78
2021/08/21 01:20:06;;;;;;;12.93;8.93;;;;;;;;;;5000914;28;20038;-78
2021/08/21 01:22:34;;;;;;;16.10;10.65;;;;;;;;;;5003680;28;20070;-77
2021/08/21 01:25:06;;;;;;;17.73;10.55;;;;;;;;;;5000332;28;20041;-83
2021/08/21 01:27:35;;;;;;;20.63;11.98;;;;;;;;;;5019961;28;20080;-80
2021/08/21 01:30:04;;;;;;;22.77;11.85;;;;;;;;;;5005806;28;20096;-86
2021/08/21 01:32:35;;;;;;;22.73;12.90;;;;;;;;;;5008462;28;20055;-82
2021/08/21 01:35:03;;;;;;;;;;;;;;;;;;5017914;28;20098;-80
2021/08/21 01:37:32;;;;;;;25.63;14.32;;;;;;;;;;5008975;28;19993;-77
2021/08/21 01:40:00;;;;;;;24.40;13.65;;;;;;;;;;5005053;28;20078;-79
2021/08/21 01:42:29;;;;;;;19.10;10.40;;;;;;;;;;4984459;28;21507;-78
2021/08/21 01:44:56;;;;;;;17.83;10.07;;;;;;;;;;5016495;28;20073;-79
2021/08/21 01:47:23;;;;;;;15.65;10.30;;;;;;;;;;4997593;28;20103;-77
2021/08/21 01:49:58;;;;;;;19.73;9.68;;;;;;;;;;5021609;28;20116;-79
2021/08/21 01:52:26;;;;;;;14.10;9.25;;;;;;;;;;5009257;28;20093;-80
2021/08/21 01:54:54;;;;;;;16.08;9.15;;;;;;;;;;5015531;28;20057;-78
2021/08/21 01:57:24;;;;;;;16.15;9.15;;;;;;;;;;5017648;28;20045;-81
2021/08/21 01:59:52;;;;;;;16.08;9.77;;;;;;;;;;5007449;28;20049;-77
2021/08/21 02:02:24;;;;;;;17.33;11.18;;;;;;;;;;4989829;28;20037;-81
2021/08/21 02:04:51;;;;;;;16.70;10.15;;;;;;;;;;4991584;28;20042;-79
2021/08/21 02:07:18;;;;;;;18.15;10.65;;;;;;;;;;4999395;28;20514;-84
2021/08/21 02:09:48;;;;;;;17.63;10.30;;;;;;;;;;5020901;28;20065;-81
2021/08/21 02:12:18;;;;;;;18.35;12.10;;;;;;;;;;5034803;28;20134;-80
2021/08/21 02:14:46;;;;;;;24.02;12.48;;;;;;;;;;5015332;28;20098;-83
2021/08/21 02:17:13;;;;;;;19.65;13.30;;;;;;;;;;5018624;28;20045;-83
2021/08/21 02:19:43;;;;;;;19.38;12.23;;;;;;;;;;5017558;28;20042;-82
2021/08/21 02:22:11;;;;;;;19.98;13.35;;;;;;;;;;5025592;28;20120;-80
2021/08/21 02:24:40;;;;;;;22.63;13.48;;;;;;;;;;5006879;28;20040;-82
2021/08/21 02:27:09;;;;;;;25.63;13.50;;;;;;;;;;5007827;28;20033;-84
2021/08/21 02:29:39;;;;;;;17.88;13.35;;;;;;;;;;5020368;28;20145;-90
2021/08/21 02:32:07;;;;;;;22.02;13.02;;;;;;;;;;5019996;28;20049;-80
2021/08/21 02:34:34;;;;;;;21.55;12.85;;;;;;;;;;5000534;28;20052;-85
2021/08/21 02:37:02;;;;;;;21.73;12.80;;;;;;;;;;5029451;28;20041;-86
2021/08/21 02:39:30;;;;;;;18.80;11.90;;;;;;;;;;4997966;28;20042;-87
2021/08/21 02:41:58;;;;;;;15.57;10.98;;;;;;;;;;5014248;28;20041;-84
2021/08/21 02:44:25;;;;;;;;;;;;;;;;;;5013835;28;20052;-79
2021/08/21 02:46:52;;;;;;;17.60;10.35;;;;;;;;;;5037566;28;19917;-78
2021/08/21 02:49:24;;;;;;;17.10;9.63;;;;;;;;;;5012349;28;20132;-80
2021/08/21 02:51:53;;;;;;;18.80;11.25;;;;;;;;;;5010643;28;20071;-79
2021/08/21 02:54:20;;;;;;;18.85;11.40;;;;;;;;;;5003314;28;20056;-80
2021/08/21 02:56:47;;;;;;;18.58;12.15;;;;;;;;;;5008784;28;20124;-79
2021/08/21 02:59:14;;;;;;;25.15;13.32;;;;;;;;;;5022350;28;20057;-86
2021/08/21 03:01:42;;;;;;;25.30;14.13;;;;;;;;;;5008368;28;20435;-83
2021/08/21 03:04:09;;;;;;;21.88;13.90;;;;;;;;;;5036656;28;20040;-78
2021/08/21 03:06:36;;;;;;;20.60;13.43;;;;;;;;;;5040440;28;20068;-83
2021/08/21 03:09:05;;;;;;;20.60;13.23;;;;;;;;;;4994432;28;20068;-85
2021/08/21 03:11:32;;;;;;;23.42;14.40;;;;;;;;;;5010337;28;20112;-76
2021/08/21 03:13:59;;;;;;;20.52;14.23;;;;;;;;;;5022904;28;20851;-87
2021/08/21 03:16:26;;;;;;;19.92;12.45;;;;;;;;;;5005567;28;20041;-81
2021/08/21 03:18:53;;;;;;;21.35;14.20;;;;;;;;;;5000905;28;20049;-82
2021/08/21 03:21:20;;;;;;;21.92;14.05;;;;;;;;;;5024489;28;20060;-81
2021/08/21 03:23:47;;;;;;;21.35;13.65;;;;;;;;;;5036808;28;20950;-78
2021/08/21 03:26:17;;;;;;;28.65;15.73;;;;;;;;;;5009755;28;20042;-78
2021/08/21 03:28:46;;;;;;;24.60;14.95;;;;;;;;;;4999438;28;20532;-80
2021/08/21 03:31:13;;;;;;;20.92;14.25;;;;;;;;;;4996105;28;20396;-79
2021/08/21 03:33:43;;;;;;;26.08;15.13;;;;;;;;;;5025823;28;20041;-79
2021/08/21 03:36:10;;;;;;;19.70;13.98;;;;;;;;;;5009984;28;20542;-82
2021/08/21 03:38:38;;;;;;;20.35;14.07;;;;;;;;;;5010116;28;20129;-81
2021/08/21 03:41:05;;;;;;;;;;;;;;;;;;5004244;28;20050;-80
2021/08/21 03:43:32;;;;;;;23.38;14.77;;;;;;;;;;5002980;28;20052;-80
2021/08/21 03:45:59;;;;;;;21.63;14.60;;;;;;;;;;5004003;28;20046;-82
2021/08/21 03:48:26;;;;;;;20.90;13.98;;;;;;;;;;5001366;28;20060;-80
2021/08/21 03:50:53;;;;;;;21.80;15.35;;;;;;;;;;5003655;28;20042;-81
2021/08/21 03:53:21;;;;;;;18.15;13.75;;;;;;;;;;5003355;28;20451;-82
2021/08/21 03:55:49;;;;;;;19.65;13.45;;;;;;;;;;5001347;28;20042;-79
2021/08/21 03:58:16;;;;;;;19.67;13.10;;;;;;;;;;5003778;28;20057;-80
2021/08/21 04:00:44;;;;;;;20.02;12.52;;;;;;;;;;5018038;28;20125;-79
2021/08/21 04:03:11;;;;;;;20.60;12.32;;;;;;;;;;5002990;28;20045;-79
2021/08/21 04:05:38;;;;;;;18.48;11.95;;;;;;;;;;5003735;28;20041;-80
2021/08/21 04:08:08;;;;;;;16.85;10.77;;;;;;;;;;5002944;28;20044;-80
2021/08/21 04:10:39;;;;;;;16.00;10.55;;;;;;;;;;5003652;28;20034;-80
2021/08/21 04:13:06;;;;;;;16.55;9.63;;;;;;;;;;5005126;28;20496;-79
2021/08/21 04:15:33;;;;;;;18.50;9.90;;;;;;;;;;5038840;28;20046;-81
2021/08/21 04:18:09;;;;;;;16.10;9.82;;;;;;;;;;5006901;28;20516;-80
2021/08/21 04:20:37;;;;;;;16.52;10.55;;;;;;;;;;5021524;28;20049;-80
2021/08/21 04:23:04;;;;;;;17.67;10.00;;;;;;;;;;5005622;28;20042;-80
2021/08/21 04:25:31;;;;;;;14.27;10.13;;;;;;;;;;5004921;28;20042;-80
2021/08/21 04:27:58;;;;;;;14.55;9.20;;;;;;;;;;5005022;28;20037;-81
2021/08/21 04:30:26;;;;;;;16.65;9.35;;;;;;;;;;5020967;28;20103;-80
2021/08/21 04:32:53;;;;;;;14.70;9.45;;;;;;;;;;5006619;28;20070;-79
2021/08/21 04:35:20;;;;;;;12.68;8.60;;;;;;;;;;5005320;28;20113;-80
2021/08/21 04:37:47;;;;;;;15.80;9.48;;;;;;;;;;5005033;28;20042;-81
2021/08/21 04:40:17;;;;;;;15.32;10.05;;;;;;;;;;4988317;28;20057;-80
2021/08/21 04:42:44;;;;;;;13.40;9.73;;;;;;;;;;5006876;28;20058;-82
2021/08/21 04:45:11;;;;;;;18.85;10.73;;;;;;;;;;5004272;28;20044;-81
2021/08/21 04:47:38;;;;;;;16.52;9.60;;;;;;;;;;5006279;28;20050;-80
2021/08/21 04:50:06;;;;;;;14.30;10.57;;;;;;;;;;5037957;28;20042;-81
2021/08/21 04:52:33;;;;;;;14.00;10.40;;;;;;;;;;5004688;28;20041;-82
2021/08/21 04:55:00;;;;;;;18.65;10.98;;;;;;;;;;5004357;28;20133;-80
2021/08/21 04:57:27;;;;;;;17.65;11.77;;;;;;;;;;5004643;28;20045;-79
2021/08/21 04:59:54;;;;;;;16.15;9.20;;;;;;;;;;5006107;28;20117;-81
2021/08/21 05:02:22;;;;;;;14.30;9.30;;;;;;;;;;5004985;28;20389;-80
2021/08/21 05:04:49;;;;;;;12.93;8.13;;;;;;;;;;5006060;28;20460;-81
2021/08/21 05:07:16;;;;;;;12.48;7.88;;;;;;;;;;5005705;28;20054;-83
2021/08/21 05:09:43;;;;;;;13.48;7.38;;;;;;;;;;5004438;28;20120;-80
2021/08/21 05:12:12;;;;;;;12.45;7.43;;;;;;;;;;5005741;28;20060;-83
2021/08/21 05:14:39;;;;;;;11.30;6.65;;;;;;;;;;5005995;28;20491;-81
2021/08/21 05:17:06;;;;;;;14.75;6.82;;;;;;;;;;5006086;28;20046;-82
2021/08/21 05:19:38;;;;;;;9.40;6.07;;;;;;;;;;5004092;28;20532;-82
2021/08/21 05:22:28;;;;;;;12.80;7.20;;;;;;;;;;5005060;28;20523;-80
2021/08/21 05:24:55;;;;;;;11.45;6.70;;;;;;;;;;5004099;28;20049;-80
2021/08/21 05:27:23;;;;;;;11.05;6.82;;;;;;;;;;4987704;28;20046;-81
2021/08/21 05:29:51;;;;;;;12.40;6.85;;;;;;;;;;5005715;28;20052;-80
2021/08/21 05:32:18;;;;;;;10.10;6.10;;;;;;;;;;5036635;28;20535;-81
2021/08/21 05:34:45;;;;;;;12.13;6.75;;;;;;;;;;5003691;28;20046;-81
2021/08/21 05:37:12;;;;;;;9.45;6.53;;;;;;;;;;5005795;28;20050;-82
2021/08/21 05:39:42;;;;;;;11.93;5.93;;;;;;;;;;5003728;28;20038;-83
2021/08/21 05:42:09;;;;;;;10.02;6.72;;;;;;;;;;5002967;28;20053;-80
2021/08/21 05:44:36;;;;;;;11.75;6.75;;;;;;;;;;5004043;28;20056;-82
2021/08/21 05:47:07;;;;;;;9.23;5.85;;;;;;;;;;5005213;28;20061;-82
2021/08/21 05:49:34;;;;;;;10.25;6.32;;;;;;;;;;5005086;28;20068;-82
2021/08/21 05:52:01;;;;;;;11.73;6.30;;;;;;;;;;5003504;28;20133;-81
2021/08/21 05:54:28;;;;;;;12.95;6.82;;;;;;;;;;5005575;28;20044;-79
2021/08/21 05:56:57;;;;;;;11.25;6.40;;;;;;;;;;5003245;28;20547;-81
2021/08/21 05:59:30;;;;;;;11.20;6.45;;;;;;;;;;5004899;28;20050;-81
2021/08/21 06:01:58;;;;;;;9.05;5.88;;;;;;;;;;5003097;28;20100;-80
2021/08/21 06:04:25;;;;;;;9.55;6.07;;;;;;;;;;5005109;28;20134;-81
2021/08/21 06:06:52;;;;;;;8.75;6.28;;;;;;;;;;5011634;28;20040;-80
2021/08/21 06:09:23;;;;;;;8.88;5.95;;;;;;;;;;5004661;28;20078;-80
2021/08/21 06:11:51;;;;;;;9.13;6.32;;;;;;;;;;5003119;28;20042;-80
2021/08/21 06:14:18;;;;;;;12.85;6.80;;;;;;;;;;5003244;28;20093;-81
2021/08/21 06:16:46;;;;;;;10.95;7.25;;;;;;;;;;5002952;28;20527;-80
2021/08/21 06:19:13;;;;;;;11.13;6.65;;;;;;;;;;5002490;28;20399;-80
2021/08/21 06:21:42;;;;;;;10.30;6.05;;;;;;;;;;4986395;28;20046;-81
2021/08/21 06:24:10;;;;;;;10.27;6.35;;;;;;;;;;5002867;28;20068;-80
2021/08/21 06:26:37;;;;;;;10.13;6.20;;;;;;;;;;5004539;28;20033;-81
2021/08/21 06:29:05;;;;;;;8.50;6.65;;;;;;;;;;5004355;28;20042;-81
2021/08/21 06:31:32;;;;;;;12.85;6.93;;;;;;;;;;5002304;28;20050;-80
2021/08/21 06:33:59;;;;;;;9.63;6.35;;;;;;;;;;5001735;28;20080;-80
2021/08/21 06:36:26;;;;;;;11.73;6.15;;;;;;;;;;5002955;28;20041;-81
2021/08/21 06:38:54;;;;;;;12.77;6.38;;;;;;;;;;5003959;28;20076;-81
2021/08/21 06:41:21;;;;;;;10.52;6.70;;;;;;;;;;5004786;28;20091;-80
2021/08/21 06:43:48;;;;;;;9.30;6.22;;;;;;;;;;5018554;28;20566;-81
2021/08/21 06:46:15;;;;;;;10.07;6.35;;;;;;;;;;5004680;28;21300;-80
2021/08/21 06:48:42;;;;;;;10.65;6.00;;;;;;;;;;5004107;28;20042;-80
2021/08/21 06:51:09;;;;;;;10.27;6.75;;;;;;;;;;4985573;28;20116;-80
2021/08/21 06:53:36;;;;;;;10.65;7.10;;;;;;;;;;5002656;28;20759;-80
2021/08/21 06:56:07;;;;;;;12.85;7.95;;;;;;;;;;5004134;28;20042;-80
2021/08/21 06:58:34;;;;;;;13.27;7.32;;;;;;;;;;5008492;28;20038;-80
2021/08/21 07:01:01;;;;;;;13.02;7.25;;;;;;;;;;5018863;28;20041;-78
2021/08/21 07:03:28;;;;;;;14.10;8.32;;;;;;;;;;5002386;28;20121;-80
2021/08/21 07:05:55;;;;;;;12.48;7.00;;;;;;;;;;5013007;28;20099;-80
2021/08/21 07:08:25;;;;;;;16.98;8.27;;;;;;;;;;5006345;28;20045;-80
2021/08/21 07:10:52;;;;;;;11.90;7.43;;;;;;;;;;5022023;28;20117;-80
2021/08/21 07:13:19;;;;;;;15.98;8.48;;;;;;;;;;5023306;28;20045;-79
2021/08/21 07:15:48;;;;;;;11.77;8.23;;;;;;;;;;5023897;28;20045;-81
2021/08/21 07:18:16;;;;;;;13.23;7.28;;;;;;;;;;5021881;28;20037;-81
2021/08/21 07:20:43;;;;;;;13.73;8.85;;;;;;;;;;5003973;28;20120;-80
2021/08/21 07:23:10;;;;;;;12.60;7.63;;;;;;;;;;5003868;28;20041;-81
2021/08/21 07:25:38;;;;;;;15.85;8.50;;;;;;;;;;4966495;28;20042;-81
2021/08/21 07:28:09;;;;;;;16.30;9.07;;;;;;;;;;4983787;28;20082;-81
2021/08/21 07:30:37;;;;;;;;;;;;;;;;;;5015466;28;20469;-80
2021/08/21 07:33:04;;;;;;;12.77;8.30;;;;;;;;;;4984426;28;19925;-81
2021/08/21 07:35:31;;;;;;;14.52;8.57;;;;;;;;;;5014900;28;20043;-81
2021/08/21 07:37:58;;;;;;;12.68;7.68;;;;;;;;;;4999317;28;20518;-81
2021/08/21 07:40:25;;;;;;;15.77;7.40;;;;;;;;;;5000352;28;20049;-81
2021/08/21 07:42:52;;;;;;;13.15;7.53;;;;;;;;;;5003431;28;20092;-82
2021/08/21 07:45:19;;;;;;;20.13;8.32;;;;;;;;;;5005433;28;20052;-81
2021/08/21 07:47:50;;;;;;;18.00;7.97;;;;;;;;;;5007365;28;20042;-81
2021/08/21 07:50:22;;;;;;;16.58;8.20;;;;;;;;;;5007599;28;21330;-81
2021/08/21 07:52:50;;;;;;;13.15;7.20;;;;;;;;;;5005706;28;20519;-81
2021/08/21 07:55:19;;;;;;;14.95;7.43;;;;;;;;;;5007443;28;20066;-81
2021/08/21 07:57:46;;;;;;;14.73;7.85;;;;;;;;;;5007558;28;20042;-81
2021/08/21 08:00:14;;;;;;;12.88;7.55;;;;;;;;;;5007487;28;20129;-81
2021/08/21 08:02:49;;;;;;;13.35;7.68;;;;;;;;;;5005300;28;20096;-80
2021/08/21 08:05:16;;;;;;;13.45;7.72;;;;;;;;;;5022142;28;20042;-80
2021/08/21 08:07:43;;;;;;;15.13;8.45;;;;;;;;;;5005582;28;20042;-80
2021/08/21 08:10:11;;;;;;;15.95;7.47;;;;;;;;;;5007296;28;20109;-80
2021/08/21 08:12:38;;;;;;;15.38;8.02;;;;;;;;;;5007270;28;20038;-80
2021/08/21 08:15:05;;;;;;;14.75;8.45;;;;;;;;;;5005945;28;20129;-81
2021/08/21 08:17:32;;;;;;;15.57;7.97;;;;;;;;;;5005439;28;20080;-80
2021/08/21 08:20:00;;;;;;;13.60;7.93;;;;;;;;;;5005108;28;20058;-80
2021/08/21 08:22:27;;;;;;;12.63;8.20;;;;;;;;;;5005791;28;20046;-80
2021/08/21 08:24:54;;;;;;;14.80;8.48;;;;;;;;;;4988770;28;20038;-79
2021/08/21 08:27:21;;;;;;;17.40;8.07;;;;;;;;;;5006761;28;20435;-79
2021/08/21 08:29:50;;;;;;;16.95;8.32;;;;;;;;;;5006546;28;20061;-80
2021/08/21 08:32:17;;;;;;;18.08;8.60;;;;;;;;;;5007262;28;20108;-80
2021/08/21 08:34:44;;;;;;;14.65;8.48;;;;;;;;;;5005073;28;20103;-80
2021/08/21 08:37:12;;;;;;;14.38;8.25;;;;;;;;;;5007858;28;20038;-79
2021/08/21 08:39:41;;;;;;;14.07;8.40;;;;;;;;;;5023636;28;20045;-80
2021/08/21 08:42:09;;;;;;;18.33;9.45;;;;;;;;;;5008002;28;20059;-81
2021/08/21 08:44:42;;;;;;;14.60;8.85;;;;;;;;;;4991425;28;20467;-81
2021/08/21 08:47:09;;;;;;;12.93;8.20;;;;;;;;;;5021125;28;20386;-81
2021/08/21 08:49:39;;;;;;;13.40;7.97;;;;;;;;;;5004724;28;20060;-81
2021/08/21 08:52:08;;;;;;;13.00;7.80;;;;;;;;;;5006893;28;20034;-81
2021/08/21 08:54:35;;;;;;;15.20;7.82;;;;;;;;;;5006516;28;20084;-81
2021/08/21 08:57:03;;;;;;;14.57;8.52;;;;;;;;;;4986836;28;20111;-81
2021/08/21 08:59:32;;;;;;;12.82;7.43;;;;;;;;;;5005094;28;20053;-81
2021/08/21 09:02:00;;;;;;;14.32;7.22;;;;;;;;;;5006351;28;20484;-80
2021/08/21 09:04:27;;;;;;;13.73;7.40;;;;;;;;;;5005840;28;20129;-80
2021/08/21 09:06:55;;;;;;;12.35;7.40;;;;;;;;;;5004720;28;20048;-80
2021/08/21 09:09:23;;;;;;;14.25;7.45;;;;;;;;;;5003560;28;20065;-80
2021/08/21 09:11:55;;;;;;;11.63;6.97;;;;;;;;;;5005637;28;20057;-81
2021/08/21 09:14:32;;;;;;;15.20;7.28;;;;;;;;;;5004256;28;20041;-81
2021/08/21 09:17:17;;;;;;;12.57;6.70;;;;;;;;;;5020818;28;20052;-82
2021/08/21 09:19:46;;;;;;;11.95;7.28;;;;;;;;;;5006251;28;20046;-82
2021/08/21 09:22:14;;;;;;;13.77;6.32;;;;;;;;;;5003919;28;20046;-82
2021/08/21 09:24:42;;;;;;;12.45;7.70;;;;;;;;;;5005987;28;20034;-82
2021/08/21 09:27:20;;;;;;;16.25;7.30;;;;;;;;;;5006069;28;20123;-81
2021/08/21 09:30:17;;;;;;;12.05;7.28;;;;;;;;;;5005403;28;20072;-82
2021/08/21 09:32:46;;;;;;;13.90;7.18;;;;;;;;;;5010240;28;20065;-81
2021/08/21 09:35:34;;;;;;;12.65;7.22;;;;;;;;;;5001101;28;20052;-84
2021/08/21 09:38:02;;;;;;;12.95;7.20;;;;;;;;;;5001094;28;20045;-81
2021/08/21 09:40:35;;;;;;;12.85;7.53;;;;;;;;;;5021533;28;20041;-82
2021/08/21 09:43:05;;;;;;;10.70;6.30;;;;;;;;;;5050650;28;20082;-80
2021/08/21 09:45:39;;;;;;;11.32;6.82;;;;;;;;;;5017018;28;20088;-80
2021/08/21 09:48:07;;;;;;;14.75;7.55;;;;;;;;;;5016720;28;20115;-80
2021/08/21 09:50:39;;;;;;;11.77;6.75;;;;;;;;;;5051421;28;20045;-79
2021/08/21 09:53:09;;;;;;;14.93;7.28;;;;;;;;;;5033648;28;20057;-80
2021/08/21 09:55:36;;;;;;;12.00;7.70;;;;;;;;;;5017433;28;20045;-80
2021/08/21 09:58:07;;;;;;;15.73;7.30;;;;;;;;;;5014852;28;20046;-80
2021/08/21 10:00:36;;;;;;;14.32;7.93;;;;;;;;;;5012754;28;20042;-82
2021/08/21 10:03:06;;;;;;;12.50;7.40;;;;;;;;;;5011406;28;20080;-82
2021/08/21 10:05:36;;;;;;;17.33;8.18;;;;;;;;;;5003428;28;20042;-81
2021/08/21 10:10:38;;;;;;;14.52;7.60;;;;;;;;;;5005005;28;20049;-83
2021/08/21 10:13:10;;;;;;;12.93;7.70;;;;;;;;;;5000233;28;20078;-81
2021/08/21 10:15:41;;;;;;;15.73;8.32;;;;;;;;;;5017173;28;20057;-81
2021/08/21 10:18:10;;;;;;;13.45;8.23;;;;;;;;;;5021580;28;20072;-80
2021/08/21 10:20:39;;;;;;;14.90;8.38;;;;;;;;;;5005709;28;20096;-80
2021/08/21 10:23:15;;;;;;;14.93;9.18;;;;;;;;;;5003244;28;20098;-78
2021/08/21 10:25:58;;;;;;;17.92;8.30;;;;;;;;;;4986647;28;20121;-81
2021/08/21 10:28:34;;;;;;;15.40;8.13;;;;;;;;;;5000657;28;20046;-80
2021/08/21 10:31:06;;;;;;;15.40;8.50;;;;;;;;;;5034356;28;20041;-76
2021/08/21 10:33:58;;;;;;;14.20;8.43;;;;;;;;;;5031367;28;20057;-77
2021/08/21 10:36:51;;;;;;;17.33;8.35;;;;;;;;;;5000437;28;20065;-81
2021/08/21 10:39:34;;;;;;;13.40;8.15;;;;;;;;;;5000463;28;20049;-78
2021/08/21 10:42:27;;;;;;;13.98;8.25;;;;;;;;;;5018482;28;20928;-80
2021/08/21 10:44:55;;;;;;;14.90;7.70;;;;;;;;;;5007615;28;20046;-82
2021/08/21 10:47:32;;;;;;;16.42;8.25;;;;;;;;;;5033205;28;20044;-89
2021/08/21 10:50:14;;;;;;;15.32;8.70;;;;;;;;;;5023404;28;20563;-87
2021/08/21 10:52:57;;;;;;;17.30;8.00;;;;;;;;;;5017297;28;20068;-88
2021/08/21 10:55:45;;;;;;;16.63;9.10;;;;;;;;;;5015625;28;20048;-78
2021/08/21 10:58:21;;;;;;;17.85;9.32;;;;;;;;;;5019435;28;20089;-81
2021/08/21 11:00:54;;;;;;;14.65;9.00;;;;;;;;;;5008735;28;20046;-81
2021/08/21 11:03:24;;;;;;;37.28;19.92;;;;;;;;;;4995716;28;20131;-81
2021/08/21 11:05:55;;;;;;;17.15;10.68;;;;;;;;;;5016320;28;20499;-81
2021/08/21 11:08:32;;;;;;;16.73;8.73;;;;;;;;;;5020278;28;20041;-77
2021/08/21 11:11:12;;;;;;;16.50;8.93;;;;;;;;;;5018571;28;20120;-76
2021/08/21 11:16:54;;;;;;;17.85;9.13;;;;;;;;;;5008569;28;20048;-78
2021/08/21 11:19:30;;;;;;;29.30;18.65;;;;;;;;;;5015229;28;20096;-78
2021/08/21 11:22:20;;;;;;;26.02;15.00;;;;;;;;;;4994292;28;20046;-77
2021/08/21 11:24:53;;;;;;;19.48;10.20;;;;;;;;;;5035533;28;20049;-81
2021/08/21 11:27:23;;;;;;;22.77;11.95;;;;;;;;;;5023521;28;20125;-84
2021/08/21 11:30:11;;;;;;;14.98;8.73;;;;;;;;;;5004472;28;20045;-80
2021/08/21 11:32:52;;;;;;;17.13;8.68;;;;;;;;;;5008016;28;20120;-91
2021/08/21 11:35:29;;;;;;;17.40;9.57;;;;;;;;;;5024906;28;20145;-87
2021/08/21 11:38:07;;;;;;;19.73;10.65;;;;;;;;;;5019257;28;20057;-85
2021/08/21 11:40:40;;;;;;;17.17;9.38;;;;;;;;;;4990836;28;20563;-85
2021/08/21 11:43:15;;;;;;;14.43;9.50;;;;;;;;;;5016119;28;20049;-84
2021/08/21 11:45:42;;;;;;;;;;;;;;;;;;5008148;28;20508;-80
2021/08/21 11:48:10;;;;;;;20.75;10.35;;;;;;;;;;5003800;28;20004;-82
2021/08/21 11:50:39;;;;;;;17.42;9.73;;;;;;;;;;4981117;28;20058;-83
2021/08/21 11:53:09;;;;;;;19.45;10.10;;;;;;;;;;4992650;28;20041;-83
2021/08/21 11:55:39;;;;;;;18.92;10.48;;;;;;;;;;4988994;28;20080;-79
2021/08/21 11:58:10;;;;;;;18.42;10.38;;;;;;;;;;4974108;28;20052;-83
2021/08/21 12:00:44;;;;;;;21.80;10.93;;;;;;;;;;5002862;28;20053;-82
2021/08/21 12:03:15;;;;;;;19.25;10.32;;;;;;;;;;4991754;28;20041;-85
2021/08/21 12:05:44;;;;;;;18.60;9.52;;;;;;;;;;5017342;28;20052;-83
2021/08/21 12:08:28;;;;;;;18.52;9.65;;;;;;;;;;5006389;28;20078;-82
2021/08/21 12:10:55;;;;;;;18.73;10.00;;;;;;;;;;5018196;28;20130;-82
2021/08/21 12:13:36;;;;;;;20.50;9.55;;;;;;;;;;5035632;28;20072;-82
2021/08/21 12:16:11;;;;;;;15.75;9.05;;;;;;;;;;5005405;28;20038;-83
2021/08/21 12:18:40;;;;;;;12.40;8.55;;;;;;;;;;5005196;28;20050;-84
2021/08/21 12:21:18;;;;;;;17.38;9.02;;;;;;;;;;5012719;28;20037;-82
2021/08/21 12:23:47;;;;;;;13.60;7.82;;;;;;;;;;4988969;28;20037;-84
2021/08/21 12:26:17;;;;;;;14.98;8.60;;;;;;;;;;5024298;28;20039;-87
2021/08/21 12:28:46;;;;;;;12.98;7.75;;;;;;;;;;5012416;28;20112;-83
2021/08/21 12:31:15;;;;;;;12.18;7.13;;;;;;;;;;4993131;28;20046;-81
2021/08/21 12:33:45;;;;;;;12.32;7.57;;;;;;;;;;5011538;28;20045;-82
2021/08/21 12:36:20;;;;;;;16.15;7.97;;;;;;;;;;5031138;28;20056;-82
2021/08/21 12:39:05;;;;;;;21.33;8.77;;;;;;;;;;5007491;28;20148;-80
2021/08/21 12:41:56;;;;;;;14.65;8.75;;;;;;;;;;4991183;28;20053;-82
2021/08/21 12:44:34;;;;;;;19.33;9.88;;;;;;;;;;4993126;28;20098;-82
2021/08/21 12:47:06;;;;;;;19.55;11.18;;;;;;;;;;5007333;28;20041;-86
2021/08/21 12:49:37;;;;;;;20.45;12.45;;;;;;;;;;5014366;28;20056;-84
2021/08/21 12:52:09;;;;;;;15.85;9.25;;;;;;;;;;5012177;28;20391;-84
2021/08/21 12:54:40;;;;;;;15.65;9.23;;;;;;;;;;5025747;28;20126;-82
2021/08/21 12:57:18;;;;;;;13.65;8.80;;;;;;;;;;5006505;28;20098;-84
2021/08/21 12:59:47;;;;;;;17.05;9.38;;;;;;;;;;5013238;28;20762;-80
2021/08/21 13:02:20;;;;;;;14.20;8.13;;;;;;;;;;5035189;28;20048;-88
2021/08/21 13:04:59;;;;;;;16.77;9.10;;;;;;;;;;4995470;28;20053;-84
2021/08/21 13:07:45;;;;;;;18.13;9.65;;;;;;;;;;5013440;28;20049;-83
2021/08/21 13:10:14;;;;;;;14.85;9.13;;;;;;;;;;5012371;28;20114;-82
2021/08/21 13:12:43;;;;;;;16.70;11.10;;;;;;;;;;5010353;28;20094;-83
2021/08/21 13:15:13;;;;;;;14.60;9.45;;;;;;;;;;5014433;28;20049;-82
2021/08/21 13:17:40;;;;;;;14.75;8.80;;;;;;;;;;5012307;28;20712;-86
2021/08/21 13:20:09;;;;;;;16.67;11.02;;;;;;;;;;5015503;28;20036;-83
2021/08/21 13:22:38;;;;;;;22.17;13.43;;;;;;;;;;4985820;28;20051;-84
2021/08/21 13:25:06;;;;;;;14.98;9.05;;;;;;;;;;4976448;28;20050;-82
2021/08/21 13:27:35;;;;;;;15.68;9.05;;;;;;;;;;4970337;28;20046;-80
2021/08/21 13:30:04;;;;;;;46.13;26.35;;;;;;;;;;4974227;28;20808;-82
2021/08/21 13:32:33;;;;;;;21.23;12.77;;;;;;;;;;5006075;28;20046;-83
2021/08/21 13:35:00;;;;;;;;;;;;;;;;;;4988383;28;20054;-84
2021/08/21 13:37:29;;;;;;;21.05;11.55;;;;;;;;;;5021779;28;19917;-84
2021/08/21 13:39:59;;;;;;;17.48;10.10;;;;;;;;;;5017974;28;20040;-85
2021/08/21 13:42:26;;;;;;;16.20;9.60;;;;;;;;;;5032703;28;20049;-84
2021/08/21 13:44:56;;;;;;;17.83;10.10;;;;;;;;;;5018073;28;20061;-80
2021/08/21 13:47:24;;;;;;;20.48;12.88;;;;;;;;;;5011367;28;20179;-81
2021/08/21 13:49:51;;;;;;;20.05;13.75;;;;;;;;;;4990359;28;20042;-82
2021/08/21 13:52:23;;;;;;;21.92;13.00;;;;;;;;;;4988619;28;20043;-80
2021/08/21 13:54:52;;;;;;;23.30;13.38;;;;;;;;;;4987249;28;20038;-81
2021/08/21 13:57:19;;;;;;;21.55;10.75;;;;;;;;;;4974266;28;20030;-79
2021/08/21 13:59:50;;;;;;;19.95;10.50;;;;;;;;;;5006083;28;20038;-80
2021/08/21 14:02:23;;;;;;;16.33;9.32;;;;;;;;;;4971426;28;20125;-79
2021/08/21 14:04:51;;;;;;;16.15;9.07;;;;;;;;;;5034313;28;20049;-81
2021/08/21 14:07:18;;;;;;;17.73;10.63;;;;;;;;;;5021834;28;20041;-80
2021/08/21 14:09:48;;;;;;;17.48;10.15;;;;;;;;;;5026604;28;20052;-80
2021/08/21 14:12:15;;;;;;;19.70;10.48;;;;;;;;;;5011186;28;20110;-81
2021/08/21 14:14:42;;;;;;;18.65;9.88;;;;;;;;;;5019794;28;20125;-79
2021/08/21 14:17:09;;;;;;;25.83;12.25;;;;;;;;;;5009612;28;20049;-78
2021/08/21 14:19:36;;;;;;;22.05;12.13;;;;;;;;;;5009978;28;20141;-79
2021/08/21 14:22:08;;;;;;;23.23;13.65;;;;;;;;;;5014325;28;20041;-78
2021/08/21 14:24:35;;;;;;;40.97;24.75;;;;;;;;;;5033796;28;20043;-82
2021/08/21 14:27:03;;;;;;;32.55;21.13;;;;;;;;;;5025406;28;20054;-71
2021/08/21 14:29:30;;;;;;;32.45;17.17;;;;;;;;;;5022466;28;20473;-73
2021/08/21 14:31:58;;;;;;;21.33;12.45;;;;;;;;;;5013314;28;20111;-74
2021/08/21 14:34:27;;;;;;;21.80;14.93;;;;;;;;;;5015911;28;20044;-75
2021/08/21 14:36:54;;;;;;;22.50;13.40;;;;;;;;;;5037618;28;20050;-74
2021/08/21 14:39:21;;;;;;;20.13;12.98;;;;;;;;;;5041630;28;20049;-75
2021/08/21 14:41:48;;;;;;;17.17;12.18;;;;;;;;;;4996049;28;20093;-75
2021/08/21 14:44:15;;;;;;;24.02;13.48;;;;;;;;;;5023923;28;20070;-72
2021/08/21 14:46:42;;;;;;;25.05;14.57;;;;;;;;;;4998464;28;20100;-77
2021/08/21 14:49:09;;;;;;;23.02;13.10;;;;;;;;;;5000794;28;20096;-77